Rogue River, Oregon
Current Conditions -  °F | °C
As of 1:10 PM on Friday 31 Oct 2014 (Local Time) from KSXT Reporting Station
Haze Haze  
Wind Chill: 44°   Ceiling: 300
Heat Index: 44°   Visibility: 1.7mi
Dew Point: 43°   Wind: 0mph
Humidity: 96%   Direction: NA
Pressure: 29.82"   Gusts: NA
Location:  42.44°N, 123.17°W
Report Text: KSXT 312010Z AUTO 00000KT 1 3/4SM BR BKN003 BKN007 07/06 A2982 RMK AO2 VIS 1/2V5 T00670061
Loading
Personal Weather Stations






























Interactive Weather Map
Tropical Storm Tracking
New forecast layout! Learn more

10-Day Weather Forecast

Advertisements
Track Severe Weather on mobile